Portada
METAR-TAF:

METAR-TAF

Aeropuertos :

Wellington, Nueva Zelanda

Aeropuerto Internacional de Wellington

latitud: 41-20S, longitud: 174-48E, altitud: 12 m

Observación

El informe se hizo hace 34 minutos, a las 01:30 UTC
Viento 8 kt del sur-suroeste
Temperatura 15°C
Humedad 77%
Presión 1020 hPa
Visibilidad 10 km o más

METAR: NZWN 230130Z AUTO 20008KT 9999 BKN034/// 15/11 Q1020 BECMG 02010KT

Hora: 14:04 (02:04 UTC)

Pronóstico

El informe se hizo hace 2 horas y 59 minutos, a las 23:05 UTC
Pronóstico válido del 23 a las 00 UTC al 24 a las 00 UTC
Viento 10 kt del norte-noreste
Visibilidad 10 km o más
Nubes dispersas a una altura de 3000 ft
Evolucionando progresivamente
del 23 a las 14 UTC al 23 a las 16 UTC
Viento 15 kt del norte-noroeste con ráfagas de 25 kt

TAF: NZWN 222305Z 2300/2400 02010KT 9999 SCT030 BECMG 2314/2316 34015G25KT

Observaciones y pronósticos meteorológicos de más de 4000 aeropuertos (mensajes METAR y TAF).

Los puntos amarillos y rojos representan las estaciones disponibles.

Ponga el ratón en el punto deseado para ver el nombre de la estación.

Haga clic para ver las observaciones y los pronósticos meteorológicos.

Para cambiar el mapa : haga clic en los botones verdes con una cruz de color negro para hacer un zoom, en el botón verde con un guión para alejar o en las flechas verdes para mapas adyacentes.


METAR-TAF: